Saturday, January 20, 2018, 1:20 AM GMT
Back to Local

CWEW, L'Assomption

Location: , , Canada Lat: 45.817
Local Time: 1:20 AM GMT ( 1:20 GMT) Lon: -73.433
Time Zone: GMT Elev: 68 ft

Show me the last for .
Show Coded

Time T Td Feel RH Dir Speed Gust Alt SLP Vis Weather Sky Remarks
2018-01-20 01:00 31 26 22 81 210° 10 - - 29.77 0 None
2018-01-20 00:00 30 27 24 88 200° 6 - - 29.80 0 None
2018-01-19 23:00 29 25 22 86 220° 6 - - 29.82 0 None
2018-01-19 22:00 28 24 20 82 220° 8 - - 29.82 0 None
2018-01-19 21:00 28 23 21 80 210° 7 - - 29.83 0 None
2018-01-19 20:00 29 23 21 76 220° 9 - - 29.84 0 None
2018-01-19 19:00 27 22 18 80 220° 10 - - 29.85 0 None
2018-01-19 18:00 27 21 18 77 230° 9 - - 29.86 0 None
2018-01-19 17:00 27 21 18 79 230° 9 - - 29.88 0 None
2018-01-19 16:00 26 22 19 82 220° 7 - - 29.90 0 None
2018-01-19 15:00 26 22 16 83 230° 10 - - 29.91 0 None
2018-01-19 14:00 26 22 16 86 220° 9 - - 29.90 0 None
2018-01-19 13:00 25 22 16 87 220° 9 - - 29.91 0 None
2018-01-19 12:00 24 20 16 82 230° 7 - - 29.91 0 None
2018-01-19 11:00 24 19 16 82 220° 7 - - 29.90 0 None
2018-01-19 10:00 24 19 17 82 230° 6 - - 29.90 0 None
2018-01-19 09:00 23 19 16 81 220° 6 - - 29.90 0 None
2018-01-19 08:00 23 19 16 82 210° 6 - - 29.91 0 None
2018-01-19 07:00 24 18 15 80 230° 7 - - 29.92 0 None
2018-01-19 06:00 23 18 14 80 220° 8 - - 29.92 0 None
2018-01-19 05:00 23 18 16 80 220° 6 - - 29.93 0 None
2018-01-19 04:00 24 18 15 78 230° 8 - - 29.93 0 None
2018-01-19 03:00 26 18 17 72 240° 8 - - 29.93 0 None
2018-01-19 02:00 24 19 15 78 230° 8 - - 29.92 0 None

Support USWX by starting your Amazon purchase here.